createdAt,value
2022-12-27T00:00:58.776Z,100680.88
2022-12-27T00:03:25.431Z,100682.00
2022-12-27T00:05:54.410Z,100679.56
2022-12-27T00:08:20.984Z,100684.84
2022-12-27T00:10:47.597Z,100684.72
2022-12-27T00:13:16.605Z,100677.84
2022-12-27T00:15:43.328Z,100670.09
2022-12-27T00:18:09.931Z,100660.63
2022-12-27T00:20:38.688Z,100651.03
2022-12-27T00:23:07.401Z,100643.22
2022-12-27T00:25:36.248Z,100648.53
2022-12-27T00:28:02.879Z,100653.75
2022-12-27T00:30:34.359Z,100653.81
2022-12-27T00:33:03.497Z,100673.75
2022-12-27T00:35:32.606Z,100668.88
2022-12-27T00:37:59.479Z,100664.88
2022-12-27T00:40:26.024Z,100670.88
2022-12-27T00:42:55.967Z,100661.31
2022-12-27T00:45:25.658Z,100640.84
2022-12-27T00:47:52.299Z,100629.63
2022-12-27T00:50:23.666Z,100621.84
2022-12-27T00:52:50.459Z,100621.84
2022-12-27T00:55:17.288Z,100633.91
2022-12-27T00:57:46.290Z,100628.72
2022-12-27T01:00:15.699Z,100627.03
2022-12-27T01:02:44.732Z,100639.31
2022-12-27T01:05:16.680Z,100641.31
2022-12-27T01:07:44.423Z,100623.16
2022-12-27T01:10:13.413Z,100614.75
2022-12-27T01:12:40.073Z,100624.91
2022-12-27T01:15:07.293Z,100605.34
2022-12-27T01:17:33.994Z,100606.19
2022-12-27T01:20:03.189Z,100601.53
2022-12-27T01:22:34.798Z,100604.94
2022-12-27T01:25:01.406Z,100613.69
2022-12-27T01:27:28.354Z,100607.13
2022-12-27T01:29:55.078Z,100606.66
2022-12-27T01:32:21.735Z,100605.91
2022-12-27T01:34:48.488Z,100609.28
2022-12-27T01:37:15.047Z,100611.81
2022-12-27T01:39:41.693Z,100615.47
2022-12-27T01:42:36.087Z,100615.63
2022-12-27T01:45:04.135Z,100616.72
2022-12-27T01:47:39.998Z,100606.84
2022-12-27T01:50:06.833Z,100609.28
2022-12-27T01:52:36.516Z,100611.53
2022-12-27T01:55:26.435Z,100613.81
2022-12-27T01:57:53.883Z,100619.41
2022-12-27T02:00:21.134Z,100626.81
2022-12-27T02:02:48.089Z,100615.75
2022-12-27T02:05:15.282Z,100610.97
2022-12-27T02:07:56.469Z,100617.41
2022-12-27T02:10:25.539Z,100620.28
2022-12-27T02:12:54.460Z,100621.25
2022-12-27T02:15:21.033Z,100631.72
2022-12-27T02:17:47.696Z,100642.41
2022-12-27T02:20:14.598Z,100635.72
2022-12-27T02:23:03.056Z,100642.91
2022-12-27T02:25:41.669Z,100651.94
2022-12-27T02:28:14.843Z,100653.88
2022-12-27T02:30:42.117Z,100647.22
2022-12-27T02:33:15.346Z,100637.66
2022-12-27T02:35:43.392Z,100640.47
2022-12-27T02:38:17.810Z,100568.34
2022-12-27T02:41:05.353Z,100617.41
2022-12-27T02:43:53.169Z,100614.84
2022-12-27T02:46:45.006Z,100612.44
2022-12-27T02:49:49.171Z,100606.44
2022-12-27T02:52:53.518Z,100608.34
2022-12-27T02:55:20.135Z,100597.84
2022-12-27T02:57:52.699Z,100607.44
2022-12-27T03:00:38.594Z,100612.53
2022-12-27T03:03:21.129Z,100616.13
2022-12-27T03:06:14.735Z,100625.69
2022-12-27T03:08:51.751Z,100617.44
2022-12-27T03:11:37.076Z,100632.09
2022-12-27T03:14:22.364Z,100636.22
2022-12-27T03:16:56.193Z,100635.06
2022-12-27T03:19:56.654Z,100640.31
2022-12-27T03:22:41.990Z,100638.97
2022-12-27T03:25:27.135Z,100634.84
2022-12-27T03:28:17.170Z,100643.47
2022-12-27T03:31:02.529Z,100644.47
2022-12-27T03:33:29.164Z,100643.13
2022-12-27T03:36:34.306Z,100634.69
2022-12-27T03:39:07.152Z,100651.31
2022-12-27T03:42:23.718Z,100648.66
2022-12-27T03:44:50.412Z,100659.91
2022-12-27T03:47:31.255Z,100667.75
2022-12-27T03:50:17.120Z,100660.69
2022-12-27T03:52:50.055Z,100671.44
2022-12-27T03:55:17.297Z,100670.59
2022-12-27T03:57:44.045Z,100680.81
2022-12-27T04:00:11.293Z,100669.66
2022-12-27T04:02:40.927Z,100673.06
2022-12-27T04:05:07.823Z,100673.06
2022-12-27T04:07:34.425Z,100675.66
2022-12-27T04:10:22.152Z,100681.78
2022-12-27T04:13:07.945Z,100682.66
2022-12-27T04:15:55.840Z,100691.31
2022-12-27T04:18:43.218Z,100692.94
2022-12-27T04:21:28.926Z,100685.69
2022-12-27T04:24:14.093Z,100699.38
2022-12-27T04:26:59.774Z,100717.28
2022-12-27T04:29:44.998Z,100718.88
2022-12-27T04:32:30.269Z,100724.72
2022-12-27T04:34:59.093Z,100728.84
2022-12-27T04:37:25.743Z,100737.41
2022-12-27T04:40:10.994Z,100733.78
2022-12-27T04:42:58.418Z,100735.38
2022-12-27T04:45:43.742Z,100742.53
2022-12-27T04:48:32.015Z,100740.91
2022-12-27T04:51:17.255Z,100754.50
2022-12-27T04:54:02.628Z,100753.63
2022-12-27T04:56:33.858Z,100762.41
2022-12-27T04:59:19.079Z,100763.06
2022-12-27T05:02:04.100Z,100764.53
2022-12-27T05:04:37.098Z,100789.22
2022-12-27T05:07:24.275Z,100777.09
2022-12-27T05:10:09.515Z,100792.47
2022-12-27T05:12:55.145Z,100788.03
2022-12-27T05:15:22.010Z,100798.25
2022-12-27T05:17:48.619Z,100787.91
2022-12-27T05:20:17.637Z,100799.31
2022-12-27T05:23:02.984Z,100792.34
2022-12-27T05:25:37.106Z,100785.16
2022-12-27T05:28:07.985Z,100799.56
2022-12-27T05:30:35.866Z,100802.28
2022-12-27T05:33:02.776Z,100795.41
2022-12-27T05:35:29.725Z,100798.66
2022-12-27T05:37:56.404Z,100804.69
2022-12-27T05:40:23.549Z,100808.94
2022-12-27T05:42:52.734Z,100813.34
2022-12-27T05:45:21.717Z,100814.22
2022-12-27T05:47:48.361Z,100812.59
2022-12-27T05:50:19.739Z,100821.00
2022-12-27T05:52:49.573Z,100823.72
2022-12-27T05:55:18.515Z,100839.94
2022-12-27T05:57:48.029Z,100835.50
2022-12-27T06:00:14.786Z,100853.38
2022-12-27T06:02:44.111Z,100850.47
2022-12-27T06:05:10.975Z,100843.56
2022-12-27T06:07:40.423Z,100851.13
2022-12-27T06:10:07.544Z,100860.50
2022-12-27T06:12:34.165Z,100860.50
2022-12-27T06:15:00.821Z,100850.00
2022-12-27T06:17:27.507Z,100867.34
2022-12-27T06:19:57.256Z,100879.34
2022-12-27T06:22:29.357Z,100862.16
2022-12-27T06:24:56.081Z,100857.97
2022-12-27T06:27:22.757Z,100869.94
2022-12-27T06:29:49.294Z,100862.28
2022-12-27T06:32:17.773Z,100894.28
2022-12-27T06:34:45.214Z,100895.31
2022-12-27T06:37:12.371Z,100895.22
2022-12-27T06:39:39.105Z,100892.56
2022-12-27T06:42:08.094Z,100896.13
2022-12-27T06:44:37.031Z,100896.69
2022-12-27T06:47:19.640Z,100905.25
2022-12-27T06:49:49.132Z,100911.28
2022-12-27T06:52:21.572Z,100923.41
2022-12-27T06:54:51.057Z,100908.34
2022-12-27T06:57:17.832Z,100923.91
2022-12-27T06:59:48.090Z,100939.38
2022-12-27T07:02:17.796Z,100918.75
2022-12-27T07:04:46.917Z,100936.22
2022-12-27T07:07:17.103Z,100929.41
2022-12-27T07:09:46.065Z,100928.31
2022-12-27T07:12:12.786Z,100937.00
2022-12-27T07:14:39.399Z,100929.28
2022-12-27T07:17:07.739Z,100951.72
2022-12-27T07:19:37.503Z,100938.69
2022-12-27T07:22:04.154Z,100943.06
2022-12-27T07:24:33.573Z,100950.00
2022-12-27T07:27:02.844Z,100950.91
2022-12-27T07:29:29.454Z,100938.69
2022-12-27T07:31:57.720Z,100928.31
2022-12-27T07:34:28.931Z,100944.00
2022-12-27T07:37:00.207Z,100958.53
2022-12-27T07:39:26.939Z,100968.72
2022-12-27T07:41:55.988Z,100965.28
2022-12-27T07:44:27.118Z,100958.34
2022-12-27T07:46:53.760Z,100974.31
2022-12-27T07:49:20.474Z,100960.53
2022-12-27T07:51:49.471Z,100988.91
2022-12-27T07:54:18.529Z,100994.81
2022-12-27T07:56:45.225Z,101004.03
2022-12-27T07:59:12.849Z,101048.81
2022-12-27T08:02:01.528Z,101018.06
2022-12-27T08:04:28.726Z,101028.53
2022-12-27T08:06:56.971Z,101038.44
2022-12-27T08:09:28.206Z,101040.25
2022-12-27T08:11:54.916Z,101049.88
2022-12-27T08:14:26.570Z,101061.78
2022-12-27T08:16:54.158Z,101061.72
2022-12-27T08:19:20.879Z,101072.44
2022-12-27T08:21:47.500Z,101069.41
2022-12-27T08:24:14.429Z,101077.00
2022-12-27T08:26:43.428Z,101076.72
2022-12-27T08:29:10.289Z,101070.44
2022-12-27T08:31:37.057Z,101090.03
2022-12-27T08:34:06.485Z,101099.28
2022-12-27T08:39:20.270Z,101113.06
2022-12-27T08:41:49.340Z,101118.94
2022-12-27T08:44:16.135Z,101113.44
2022-12-27T08:46:42.887Z,101093.69
2022-12-27T08:49:09.556Z,101091.06
2022-12-27T08:51:41.094Z,101104.38
2022-12-27T08:54:11.574Z,101104.88
2022-12-27T08:56:41.042Z,101072.69
2022-12-27T08:59:07.977Z,101107.88
2022-12-27T09:01:34.839Z,101101.91
2022-12-27T09:04:01.484Z,101104.34
2022-12-27T09:06:28.346Z,101087.38
2022-12-27T09:08:59.770Z,101096.66
2022-12-27T09:11:30.272Z,101095.47
2022-12-27T09:13:58.055Z,101080.28
2022-12-27T09:16:27.625Z,101101.84
2022-12-27T09:18:55.181Z,101079.63
2022-12-27T09:21:22.699Z,100895.13
2022-12-27T09:23:49.779Z,101097.84
2022-12-27T09:26:17.550Z,101110.72
2022-12-27T09:28:49.201Z,101103.13
2022-12-27T09:31:18.999Z,101125.47
2022-12-27T09:33:45.818Z,101154.00
2022-12-27T09:36:13.511Z,101140.81
2022-12-27T09:38:40.220Z,101146.75
2022-12-27T09:41:19.425Z,101148.16
2022-12-27T09:43:58.857Z,101153.78
2022-12-27T09:46:29.956Z,101155.03
2022-12-27T09:48:59.120Z,101136.66
2022-12-27T09:51:36.767Z,101145.41
2022-12-27T09:54:19.651Z,101141.72
2022-12-27T09:57:18.332Z,101152.91
2022-12-27T09:59:37.482Z,101161.06
2022-12-27T10:02:04.561Z,101146.91
2022-12-27T10:05:10.033Z,101154.31
2022-12-27T10:07:42.623Z,101144.59
2022-12-27T10:10:15.917Z,101173.81
2022-12-27T10:13:00.054Z,101160.69
2022-12-27T10:15:48.432Z,101152.59
2022-12-27T10:18:34.080Z,101162.53
2022-12-27T10:21:10.321Z,101200.81
2022-12-27T10:23:37.371Z,101180.66
2022-12-27T10:26:12.990Z,101195.44
2022-12-27T10:28:44.001Z,101213.75
2022-12-27T10:31:17.596Z,101227.25
2022-12-27T10:33:46.517Z,101221.25
2022-12-27T10:36:14.313Z,101222.06
2022-12-27T10:38:43.197Z,101220.59
2022-12-27T10:41:41.263Z,101234.75
2022-12-27T10:44:11.598Z,101219.09
2022-12-27T10:46:38.408Z,101233.31
2022-12-27T10:49:24.571Z,101224.75
2022-12-27T10:51:54.089Z,101218.88
2022-12-27T10:54:27.841Z,101215.00
2022-12-27T10:56:55.022Z,101219.63
2022-12-27T10:59:28.634Z,101208.00
2022-12-27T11:02:03.328Z,101221.56
2022-12-27T11:04:33.663Z,101226.63
2022-12-27T11:07:03.097Z,101243.69
2022-12-27T11:09:44.936Z,101231.56
2022-12-27T11:12:19.459Z,101231.66
2022-12-27T11:15:08.915Z,101218.25
2022-12-27T11:17:41.377Z,101237.66
2022-12-27T11:20:29.288Z,101241.59
2022-12-27T11:22:58.706Z,101204.94
2022-12-27T11:25:32.943Z,101214.97
2022-12-27T11:28:19.952Z,101227.28
2022-12-27T11:30:53.245Z,101238.91
2022-12-27T11:33:25.970Z,101209.06
2022-12-27T11:36:00.005Z,101207.56
2022-12-27T11:38:28.072Z,101208.84
2022-12-27T11:41:09.982Z,101183.91
2022-12-27T11:43:47.994Z,101196.13
2022-12-27T11:46:21.633Z,101205.59
2022-12-27T11:48:49.590Z,101215.34
2022-12-27T11:51:16.646Z,101209.50
2022-12-27T11:53:48.710Z,101222.91
2022-12-27T11:56:30.726Z,101220.03
2022-12-27T11:58:59.539Z,101236.72
2022-12-27T12:01:38.511Z,101230.47
2022-12-27T12:04:08.375Z,101216.81
2022-12-27T12:06:47.895Z,101236.09
2022-12-27T12:09:20.612Z,101246.03
2022-12-27T12:11:55.371Z,101239.75
2022-12-27T12:14:42.359Z,101235.06
2022-12-27T12:17:32.435Z,101226.34
2022-12-27T12:20:22.946Z,101216.44
2022-12-27T12:23:11.576Z,101217.28
2022-12-27T12:25:46.640Z,101204.72
2022-12-27T12:28:38.367Z,101190.78
2022-12-27T12:31:06.553Z,101191.41
2022-12-27T12:33:52.810Z,101191.75
2022-12-27T12:36:34.945Z,101213.75
2022-12-27T12:39:13.924Z,101206.84
2022-12-27T12:41:50.315Z,101203.16
2022-12-27T12:44:17.469Z,101192.31
2022-12-27T12:46:57.770Z,101205.41
2022-12-27T12:49:34.038Z,101201.44
2022-12-27T12:52:03.716Z,101213.63
2022-12-27T12:54:36.606Z,101202.47
2022-12-27T12:57:13.345Z,101203.00
2022-12-27T12:59:40.131Z,101205.84
2022-12-27T13:02:09.464Z,101227.72
2022-12-27T13:04:54.011Z,101217.56
2022-12-27T13:07:30.363Z,101229.44
2022-12-27T13:09:57.862Z,101231.41
2022-12-27T13:12:54.220Z,101236.44
2022-12-27T13:15:36.203Z,101226.97
2022-12-27T13:18:26.606Z,101242.97
2022-12-27T13:21:18.210Z,101240.88
2022-12-27T13:23:44.960Z,101226.84
2022-12-27T13:26:21.544Z,101240.66
2022-12-27T13:28:48.195Z,101260.28
2022-12-27T13:31:20.864Z,101249.78
2022-12-27T13:34:05.819Z,101252.41
2022-12-27T13:36:37.429Z,101245.94
2022-12-27T13:39:26.157Z,101251.06
2022-12-27T13:42:09.045Z,101247.03
2022-12-27T13:44:44.882Z,101254.13
2022-12-27T13:47:20.936Z,101250.00
2022-12-27T13:50:10.809Z,101254.25
2022-12-27T13:52:40.229Z,101272.56
2022-12-27T13:55:22.218Z,101268.75
2022-12-27T13:58:07.527Z,101273.22
2022-12-27T14:00:52.517Z,101277.00
2022-12-27T14:03:24.522Z,101289.88
2022-12-27T14:05:51.323Z,101302.63
2022-12-27T14:08:39.949Z,101310.09
2022-12-27T14:11:14.765Z,101305.97
2022-12-27T14:13:41.822Z,101336.13
2022-12-27T14:16:16.040Z,101339.25
2022-12-27T14:18:45.098Z,101349.81
2022-12-27T14:21:15.561Z,101341.94
2022-12-27T14:23:45.782Z,101345.00
2022-12-27T14:26:21.574Z,101349.44
2022-12-27T14:29:00.296Z,101348.56
2022-12-27T14:31:37.843Z,101356.66
2022-12-27T14:34:16.670Z,101364.91
2022-12-27T14:37:03.864Z,101391.81
2022-12-27T14:39:45.736Z,101365.56
2022-12-27T14:42:23.872Z,101367.34
2022-12-27T14:45:11.555Z,101372.41
2022-12-27T14:47:47.476Z,101379.81
2022-12-27T14:50:17.041Z,101389.38
2022-12-27T14:52:52.535Z,101391.69
2022-12-27T14:55:37.664Z,101397.56
2022-12-27T14:58:23.020Z,101387.66
2022-12-27T15:00:49.760Z,101392.78
2022-12-27T15:03:38.041Z,101384.72
2022-12-27T15:06:16.419Z,101374.66
2022-12-27T15:08:53.345Z,101376.97
2022-12-27T15:11:45.708Z,101373.56
2022-12-27T15:14:24.795Z,101387.41
2022-12-27T15:16:57.950Z,101382.22
2022-12-27T15:19:46.259Z,101397.19
2022-12-27T15:22:48.385Z,101403.94
2022-12-27T15:25:19.891Z,101414.16
2022-12-27T15:27:55.752Z,101429.47
2022-12-27T15:30:41.309Z,101438.69
2022-12-27T15:33:14.081Z,101451.03
2022-12-27T15:35:44.636Z,101455.38
2022-12-27T15:38:15.109Z,101454.09
2022-12-27T15:41:10.366Z,101454.50
2022-12-27T15:43:46.556Z,101456.38
2022-12-27T15:46:26.297Z,101455.19
2022-12-27T15:48:55.797Z,101445.66
2022-12-27T15:51:48.739Z,101463.53
2022-12-27T15:54:18.536Z,101459.56
2022-12-27T15:56:45.096Z,101470.69
2022-12-27T15:59:30.638Z,101466.59
2022-12-27T16:02:32.428Z,101473.25
2022-12-27T16:05:02.583Z,101481.81
2022-12-27T16:07:37.940Z,101474.53
2022-12-27T16:10:35.257Z,101476.31
2022-12-27T16:13:07.708Z,101482.66
2022-12-27T16:15:37.659Z,101483.13
2022-12-27T16:18:13.727Z,101482.16
2022-12-27T16:20:44.608Z,101486.03
2022-12-27T16:23:11.451Z,101483.94
2022-12-27T16:25:38.866Z,101488.38
2022-12-27T16:28:09.245Z,101487.31
2022-12-27T16:30:43.119Z,101482.41
2022-12-27T16:33:33.610Z,101480.84
2022-12-27T16:36:06.355Z,101485.75
2022-12-27T16:38:33.823Z,101488.69
2022-12-27T16:41:11.714Z,101486.63
2022-12-27T16:44:04.773Z,101488.06
2022-12-27T16:46:52.099Z,101488.59
2022-12-27T16:49:46.090Z,101490.03
2022-12-27T16:52:12.705Z,101484.88
2022-12-27T16:54:42.346Z,101480.84
2022-12-27T16:57:22.425Z,101482.91
2022-12-27T16:59:56.515Z,101483.91
2022-12-27T17:02:38.971Z,101490.28
2022-12-27T17:05:17.283Z,101482.06
2022-12-27T17:07:55.991Z,101496.50
2022-12-27T17:10:25.667Z,101500.94
2022-12-27T17:12:53.057Z,101498.78
2022-12-27T17:15:19.990Z,101504.06
2022-12-27T17:17:47.024Z,101504.22
2022-12-27T17:20:15.029Z,101494.97
2022-12-27T17:22:43.741Z,101505.06
2022-12-27T17:25:16.772Z,101510.53
2022-12-27T17:27:48.785Z,101514.41
2022-12-27T17:30:41.849Z,101519.88
2022-12-27T17:33:20.847Z,101509.47
2022-12-27T17:35:52.890Z,101511.97
2022-12-27T17:38:24.697Z,101512.22
2022-12-27T17:40:59.640Z,101517.84
2022-12-27T17:44:04.848Z,101521.47
2022-12-27T17:46:46.804Z,101530.88
2022-12-27T17:49:13.641Z,101534.63
2022-12-27T17:51:45.032Z,101534.19
2022-12-27T17:54:43.116Z,101532.22
2022-12-27T17:57:30.051Z,101537.94
2022-12-27T17:59:56.835Z,101537.50
2022-12-27T18:02:37.811Z,101544.56
2022-12-27T18:05:05.302Z,101547.13
2022-12-27T18:07:32.798Z,101546.91
2022-12-27T18:10:03.760Z,101552.50
2022-12-27T18:12:30.721Z,101560.13
2022-12-27T18:15:16.361Z,101565.28
2022-12-27T18:17:43.584Z,101565.97
2022-12-27T18:20:28.755Z,101575.16
2022-12-27T18:23:01.684Z,101572.56
2022-12-27T18:25:29.717Z,101576.25
2022-12-27T18:28:00.427Z,101579.84
2022-12-27T18:30:32.472Z,101577.72
2022-12-27T18:33:08.925Z,101578.72
2022-12-27T18:35:35.693Z,101569.09
2022-12-27T18:38:04.720Z,101582.75
2022-12-27T18:40:34.519Z,101588.94
2022-12-27T18:43:01.301Z,101587.25
2022-12-27T18:45:29.284Z,101590.34
2022-12-27T18:47:56.775Z,101598.31
2022-12-27T18:50:30.551Z,101607.06
2022-12-27T18:53:06.773Z,101606.25
2022-12-27T18:55:36.246Z,101600.13
2022-12-27T18:58:06.022Z,101594.19
2022-12-27T19:00:32.697Z,101595.44
2022-12-27T19:03:15.394Z,101596.53
2022-12-27T19:06:00.922Z,101606.13
2022-12-27T19:08:44.427Z,101609.63
2022-12-27T19:11:20.658Z,101607.81
2022-12-27T19:13:52.512Z,101603.34
2022-12-27T19:16:24.196Z,101607.72
2022-12-27T19:18:59.144Z,101602.81
2022-12-27T19:21:31.241Z,101606.94
2022-12-27T19:23:57.789Z,101606.72
2022-12-27T19:26:25.818Z,101599.13
2022-12-27T19:29:00.844Z,101606.38
2022-12-27T19:31:27.538Z,101600.09
2022-12-27T19:34:09.773Z,101588.69
2022-12-27T19:36:40.339Z,101594.41
2022-12-27T19:39:10.451Z,101592.25
2022-12-27T19:41:38.366Z,101594.19
2022-12-27T19:44:09.017Z,101596.09
2022-12-27T19:46:38.402Z,101592.84
2022-12-27T19:49:40.414Z,101597.28
2022-12-27T19:51:52.105Z,101615.41
2022-12-27T19:54:19.616Z,101631.16
2022-12-27T19:56:48.389Z,101622.50
2022-12-27T19:59:16.090Z,101619.13
2022-12-27T20:01:47.483Z,101619.69
2022-12-27T20:04:14.630Z,101604.88
2022-12-27T20:06:43.591Z,101608.00
2022-12-27T20:09:11.097Z,101606.78
2022-12-27T20:11:37.739Z,101606.41
2022-12-27T20:14:04.444Z,101607.75
2022-12-27T20:16:33.547Z,101604.72
2022-12-27T20:19:03.278Z,101604.63
2022-12-27T20:21:29.976Z,101604.88
2022-12-27T20:23:58.844Z,101613.94
2022-12-27T20:26:26.238Z,101609.69
2022-12-27T20:28:55.314Z,101599.19
2022-12-27T20:31:22.540Z,101612.06
2022-12-27T20:33:55.295Z,101614.09
2022-12-27T20:36:22.928Z,101624.69
2022-12-27T20:38:54.180Z,101627.50
2022-12-27T20:41:21.336Z,101633.53
2022-12-27T20:43:54.866Z,101617.47
2022-12-27T20:46:24.063Z,101615.19
2022-12-27T20:48:56.752Z,101611.59
2022-12-27T20:51:27.559Z,101621.59
2022-12-27T20:53:55.251Z,101626.59
2022-12-27T20:56:21.974Z,101630.72
2022-12-27T20:58:48.588Z,101639.34
2022-12-27T21:01:16.489Z,101636.22
2022-12-27T21:03:43.877Z,101629.81
2022-12-27T21:06:15.470Z,101620.06
2022-12-27T21:08:47.978Z,101621.66
2022-12-27T21:11:20.269Z,101624.09
2022-12-27T21:13:47.808Z,101626.81
2022-12-27T21:16:20.654Z,101640.41
2022-12-27T21:18:47.674Z,101644.22
2022-12-27T21:21:20.856Z,101647.00
2022-12-27T21:23:51.106Z,101647.56
2022-12-27T21:26:23.771Z,101641.66
2022-12-27T21:28:50.822Z,101639.53
2022-12-27T21:31:17.710Z,101639.00
2022-12-27T21:33:44.739Z,101648.75
2022-12-27T21:36:16.689Z,101643.47
2022-12-27T21:38:43.545Z,101644.81
2022-12-27T21:41:11.870Z,101645.66
2022-12-27T21:43:38.519Z,101648.78
2022-12-27T21:46:06.756Z,101654.19
2022-12-27T21:48:33.712Z,101648.72
2022-12-27T21:51:07.146Z,101649.38
2022-12-27T21:53:36.089Z,101652.41
2022-12-27T21:56:02.811Z,101650.88
2022-12-27T21:58:34.717Z,101647.41
2022-12-27T22:01:09.247Z,101642.09
2022-12-27T22:03:37.116Z,101649.44
2022-12-27T22:06:11.194Z,101653.16
2022-12-27T22:08:40.533Z,101648.13
2022-12-27T22:11:07.387Z,101644.00
2022-12-27T22:13:34.153Z,101646.16
2022-12-27T22:16:04.744Z,101640.59
2022-12-27T22:18:35.312Z,101645.50
2022-12-27T22:21:05.463Z,101652.94
2022-12-27T22:23:36.405Z,101651.78
2022-12-27T22:26:03.230Z,101659.63
2022-12-27T22:28:29.858Z,101652.47
2022-12-27T22:30:57.084Z,101654.06
2022-12-27T22:33:26.762Z,101649.38
2022-12-27T22:35:53.430Z,101646.03
2022-12-27T22:38:20.033Z,101658.09
2022-12-27T22:40:49.002Z,101652.16
2022-12-27T22:43:15.678Z,101646.34
2022-12-27T22:45:42.754Z,101643.78
2022-12-27T22:48:14.264Z,101650.47
2022-12-27T22:50:43.237Z,101637.81
2022-12-27T22:53:09.929Z,101628.19
2022-12-27T22:55:40.152Z,101627.59
2022-12-27T22:58:07.235Z,101630.53
2022-12-27T23:00:33.851Z,101628.28
2022-12-27T23:03:00.716Z,101628.63
2022-12-27T23:05:27.333Z,101628.34
2022-12-27T23:08:05.937Z,101628.13
2022-12-27T23:10:36.660Z,101627.47
2022-12-27T23:13:03.785Z,101630.81
2022-12-27T23:15:33.130Z,101627.69
2022-12-27T23:17:59.907Z,101632.84
2022-12-27T23:20:28.969Z,101617.41
2022-12-27T23:22:55.550Z,101616.59
2022-12-27T23:25:25.362Z,101615.06
2022-12-27T23:27:52.067Z,101612.72
2022-12-27T23:30:19.606Z,101612.47
2022-12-27T23:32:46.163Z,101610.91
2022-12-27T23:35:12.804Z,101608.56
2022-12-27T23:37:39.450Z,101604.53
2022-12-27T23:40:09.252Z,101599.59
2022-12-27T23:42:38.638Z,101598.16
2022-12-27T23:45:05.595Z,101597.50
2022-12-27T23:47:32.213Z,101589.94
2022-12-27T23:49:58.924Z,101590.91
2022-12-27T23:52:27.906Z,101590.16
2022-12-27T23:54:54.443Z,101594.38
2022-12-27T23:57:23.637Z,101595.31
2022-12-27T23:59:55.475Z,101589.94
